Aérodrome :
LOGIN :

S'inscrire | Disclaimer

   EN    FR    IT 

 










Légende :    VFR   VFR Marginal   IFR   IFR Intensif   IFR Très Intensif
Visi : 
Plafond : 
>= 8 km
>= 3000ft
5 à 8 km
1000 à 3000 ft
1500m à 5 km
500 à 1000 ft
800 à 1500m
200 à 500 ft
< 800m
< 200 ft
Symboles :   Orages  Brouillard  Fortes neiges  Fortes précipitations  Vent > 20 kt
SIGMETs :   Divers  Orages  Givrage  Turbulence  Onde Orograph.  Cendres Volcan.







- Altitude de l'aérodrome : -15 ft
- Code IATA : RTM


EHRD - Rotterdam Zestienhoven

DERNIER METAR :
  • 181055Z AUTO 09004KT 040V140 7000 NCD 16/13 Q1013 REUP BECMG 9999

METARs EXPIRÉS :
  • 181025Z AUTO 08005KT 030V130 7000 NSC 15/13 Q1012 BECMG 9999
  • 180955Z AUTO 09005KT 050V120 7000 FEW007/// 15/12 Q1013 BECMG 9999
  • 180925Z AUTO 11005KT 080V140 7000 BKN007 14/12 Q1013 BECMG 9999 SCT010
  • 180855Z AUTO 09006KT 060V140 7000 BKN007/// OVC008/// 14/12 Q1013 BECMG 9999 SCT010
  • 180825Z AUTO 08006KT 9999 FEW007 OVC008 13/11 Q1013 BECMG SCT010

TAF AMD TAF EHRD
Valide du 18 à 08h jusqu'au 19 à 12h UTC


180833Z 1808/1912 09007KT CAVOK
TEMPO 1808/1809 BKN009
BECMG 1819/1822 4000 MIFG BR
BECMG 1823/1902 1200 BCFG
PROB30 1823/1908 0400 FG
BECMG 1908/1910 15010KT CAVOK
Pas de NOTAMs connus pour ce terrain.



MET'MAP, la Météo Aéronautique d'un coup d'oeil ! - Copyright ORBIFLY Décembre 2007 - Disclaimer

ORBIFLY MET'MAP TEAM :

Programmation & Développement : Alexandra Zaïnal
Conception & Développement : Baudouin d'Aumeries
Co-Programmation & Développement : Marc-Olivier Méhu
Soutien technique & logistique : Manuel Goepfert

Contact : metmap@orbifly.com




SOURCES & CREDITS :

   NOAA